Time;durP1;ratioP1;P1;durP2;ratioP2;P2;SDS_P1;SDS_P2;PMS_P1;PMS_P2;Temp;Humidity;BMP_temperature;BMP_pressure;BME280_temperature;BME280_humidity;BME280_pressure;Samples;Min_cycle;Max_cycle;Signal;HPM_P1;HPM_P2
2021/09/28 00:00:29;;;;;;;0.00;0.00;;;;;;;9.76;89.10;91430.25;4997570;28;20022;-87
2021/09/28 00:02:55;;;;;;;0.20;0.00;;;;;;;9.76;88.59;91432.84;4981071;28;20443;-87
2021/09/28 00:05:20;;;;;;;0.43;0.00;;;;;;;9.72;90.15;91439.75;4980884;28;20124;-86
2021/09/28 00:07:45;;;;;;;0.10;0.00;;;;;;;9.58;89.48;91450.31;4981047;28;20026;-87
2021/09/28 00:10:11;;;;;;;0.05;0.00;;;;;;;9.55;90.38;91438.69;4995646;28;20029;-86
2021/09/28 00:12:36;;;;;;;2.45;0.82;;;;;;;9.60;90.07;91440.34;5005247;28;20022;-90
2021/09/28 00:15:04;;;;;;;0.00;0.00;;;;;;;9.43;90.48;91428.13;4981064;28;20399;-87
2021/09/28 00:17:29;;;;;;;0.00;0.00;;;;;;;9.46;90.00;91435.31;5013427;28;20509;-88
2021/09/28 00:19:54;;;;;;;0.00;0.00;;;;;;;9.45;90.56;91441.59;4980874;28;20018;-87
2021/09/28 00:22:20;;;;;;;0.00;0.00;;;;;;;9.30;90.59;91434.28;4997265;28;20025;-87
2021/09/28 00:24:45;;;;;;;0.00;0.00;;;;;;;9.22;91.45;91432.41;4985675;28;20025;-86
2021/09/28 00:27:11;;;;;;;0.10;0.10;;;;;;;9.17;90.75;91445.59;5000426;28;20052;-87
2021/09/28 00:29:36;;;;;;;1.00;0.20;;;;;;;9.12;89.81;91456.91;5000582;28;20018;-86
2021/09/28 00:32:02;;;;;;;3.30;0.40;;;;;;;8.88;89.21;91451.38;4984419;28;20545;-87
2021/09/28 00:34:27;;;;;;;4.00;0.55;;;;;;;8.93;88.63;91448.63;5000226;28;20026;-86
2021/09/28 00:36:53;;;;;;;2.22;0.60;;;;;;;8.87;88.39;91461.03;5000409;28;20033;-87
2021/09/28 00:39:18;;;;;;;2.80;0.50;;;;;;;8.75;86.22;91469.38;4998057;28;20031;-87
2021/09/28 00:41:44;;;;;;;6.07;1.15;;;;;;;8.75;86.70;91466.03;5019925;28;20024;-87
2021/09/28 00:44:09;;;;;;;9.00;0.57;;;;;;;8.77;88.85;91461.31;5036343;28;20025;-86
2021/09/28 00:46:34;;;;;;;6.13;0.60;;;;;;;8.68;85.84;91460.50;5019723;28;20020;-85
2021/09/28 00:49:00;;;;;;;6.03;0.95;;;;;;;8.58;86.00;91464.91;5019185;28;20025;-86
2021/09/28 00:51:26;;;;;;;2.63;0.75;;;;;;;8.60;87.89;91462.78;5036516;28;20083;-86
2021/09/28 00:53:52;;;;;;;6.18;1.00;;;;;;;8.59;85.99;91465.69;5019672;28;20464;-87
2021/09/28 00:56:19;;;;;;;11.27;1.88;;;;;;;8.38;88.43;91449.88;5036430;28;20021;-86
2021/09/28 00:58:44;;;;;;;4.38;0.73;;;;;;;8.48;87.50;91452.22;5029948;28;20104;-87
2021/09/28 01:01:10;;;;;;;10.95;0.80;;;;;;;8.50;87.27;91457.84;4984543;28;20163;-89
2021/09/28 01:03:35;;;;;;;7.97;1.88;;;;;;;8.71;87.12;91454.72;4980660;28;20034;-86
2021/09/28 01:06:04;;;;;;;4.72;0.93;;;;;;;8.52;86.49;91455.75;4980741;28;20030;-87
2021/09/28 01:08:29;;;;;;;6.03;1.38;;;;;;;8.51;86.26;91454.19;4988442;28;20029;-86
2021/09/28 01:10:55;;;;;;;10.20;1.17;;;;;;;8.53;86.47;91446.88;5000034;28;20021;-86
2021/09/28 01:13:21;;;;;;;8.95;1.10;;;;;;;8.43;85.73;91443.78;5005510;28;20032;-86
2021/09/28 01:16:07;;;;;;;7.88;0.90;;;;;;;8.43;86.02;91441.94;5019597;28;20026;-86
2021/09/28 01:18:34;;;;;;;6.57;1.40;;;;;;;8.24;86.03;91431.03;5019546;28;20033;-86
2021/09/28 01:21:00;;;;;;;6.88;1.10;;;;;;;8.12;87.77;91432.34;5005522;28;20110;-87
2021/09/28 01:23:25;;;;;;;6.45;1.45;;;;;;;8.07;86.90;91424.69;5035788;28;20112;-86
2021/09/28 01:25:51;;;;;;;4.03;0.95;;;;;;;8.08;87.40;91428.81;5022932;28;20029;-91
2021/09/28 01:28:16;;;;;;;6.65;1.00;;;;;;;8.07;87.28;91429.88;5060462;28;20017;-88
2021/09/28 01:30:42;;;;;;;6.82;1.23;;;;;;;8.00;87.69;91429.56;5061166;28;20092;-86
2021/09/28 01:33:07;;;;;;;4.38;0.77;;;;;;;7.96;88.75;91438.25;5047321;28;20482;-85
2021/09/28 01:35:35;;;;;;;4.57;0.80;;;;;;;7.96;88.66;91436.41;5052458;28;20024;-86
2021/09/28 01:38:00;;;;;;;7.15;0.95;;;;;;;7.99;88.52;91427.25;5006467;28;20517;-87
2021/09/28 01:40:25;;;;;;;4.55;1.13;;;;;;;8.15;87.51;91428.38;5015468;28;20021;-86
2021/09/28 01:42:51;;;;;;;5.43;1.15;;;;;;;8.06;87.56;91435.38;4998973;28;20037;-87
2021/09/28 01:45:16;;;;;;;7.20;0.82;;;;;;;7.98;87.36;91436.84;4998791;28;20028;-87
2021/09/28 01:47:42;;;;;;;5.28;0.93;;;;;;;8.02;88.33;91442.22;4982629;28;20036;-87
2021/09/28 01:50:08;;;;;;;7.28;1.25;;;;;;;8.24;87.90;91441.41;4982844;28;20028;-86
2021/09/28 01:52:34;;;;;;;7.40;0.90;;;;;;;8.31;85.61;91439.16;5012977;28;20037;-87
2021/09/28 01:55:00;;;;;;;6.32;0.98;;;;;;;8.19;88.03;91451.91;5018772;28;20413;-87
2021/09/28 01:57:25;;;;;;;6.13;0.93;;;;;;;8.21;86.94;91453.16;5035115;28;20036;-87
2021/09/28 01:59:51;;;;;;;5.55;0.80;;;;;;;8.32;86.31;91443.25;5018297;28;20017;-87
2021/09/28 02:02:16;;;;;;;2.85;0.70;;;;;;;8.19;86.38;91441.53;5020713;28;20032;-87
2021/09/28 02:04:42;;;;;;;7.38;1.50;;;;;;;8.17;86.89;91444.44;5020954;28;20025;-87
2021/09/28 02:07:07;;;;;;;7.90;1.48;;;;;;;8.03;86.84;91443.78;5013193;28;20034;-88
2021/09/28 02:09:32;;;;;;;6.32;1.00;;;;;;;8.38;85.27;91442.84;4998737;28;20026;-87
2021/09/28 02:11:58;;;;;;;10.48;1.77;;;;;;;8.06;86.75;91430.97;5015573;28;20055;-87
2021/09/28 02:14:26;;;;;;;5.20;0.82;;;;;;;8.06;86.26;91443.19;4982556;28;20025;-86
2021/09/28 02:16:52;;;;;;;5.82;1.10;;;;;;;8.07;86.65;91437.66;4980029;28;20037;-87
2021/09/28 02:19:18;;;;;;;6.82;1.20;;;;;;;8.03;87.94;91441.94;4979194;28;20026;-87
2021/09/28 02:21:43;;;;;;;7.80;1.10;;;;;;;8.07;88.12;91432.47;4995147;28;20030;-87
2021/09/28 02:24:10;;;;;;;7.15;1.00;;;;;;;8.05;87.54;91436.44;5010428;28;20030;-87
2021/09/28 02:26:35;;;;;;;5.20;1.00;;;;;;;8.02;87.64;91432.63;5035173;28;20028;-90
2021/09/28 02:29:01;;;;;;;6.38;0.80;;;;;;;7.96;87.54;91431.22;5032294;28;20029;-86
2021/09/28 02:31:26;;;;;;;5.07;1.08;;;;;;;7.94;88.21;91428.16;5014867;28;20426;-86
2021/09/28 02:33:51;;;;;;;8.30;1.08;;;;;;;8.06;88.13;91417.97;5030921;28;20032;-87
2021/09/28 02:36:17;;;;;;;6.70;1.00;;;;;;;7.96;88.42;91423.44;5032479;28;20025;-87
2021/09/28 02:38:42;;;;;;;2.50;0.80;;;;;;;7.92;87.98;91422.50;5018468;28;20021;-86
2021/09/28 02:41:08;;;;;;;4.05;0.90;;;;;;;7.88;88.64;91427.53;5035130;28;20025;-87
2021/09/28 02:43:33;;;;;;;3.97;0.70;;;;;;;8.00;88.73;91426.94;5014997;28;20099;-87
2021/09/28 02:45:59;;;;;;;4.60;0.80;;;;;;;8.05;86.90;91416.44;4982692;28;20037;-87
2021/09/28 02:48:24;;;;;;;2.05;0.93;;;;;;;8.02;87.33;91421.44;4991242;28;20021;-87
2021/09/28 02:50:49;;;;;;;2.58;0.80;;;;;;;8.07;87.02;91409.13;5021843;28;20017;-86
2021/09/28 02:53:15;;;;;;;6.03;1.25;;;;;;;8.00;88.43;91421.00;5021545;28;20025;-87
2021/09/28 02:55:40;;;;;;;6.30;0.90;;;;;;;8.00;88.21;91413.97;5037720;28;20021;-86
2021/09/28 02:58:06;;;;;;;8.63;0.90;;;;;;;7.96;87.12;91423.44;5002396;28;20083;-86
2021/09/28 03:00:31;;;;;;;9.45;1.10;;;;;;;7.98;88.16;91418.69;5003024;28;20398;-87
2021/09/28 03:02:57;;;;;;;5.03;1.05;;;;;;;8.13;86.42;91418.31;4986115;28;20038;-87
2021/09/28 03:05:22;;;;;;;7.13;1.10;;;;;;;8.10;87.59;91423.34;4985352;28;20095;-87
2021/09/28 03:07:48;;;;;;;5.28;0.90;;;;;;;8.17;88.03;91428.84;5002518;22;20006;-90
2021/09/28 03:10:13;;;;;;;6.55;1.00;;;;;;;8.11;88.36;91428.22;5014307;28;20084;-89
2021/09/28 03:12:39;;;;;;;4.53;0.90;;;;;;;7.94;87.18;91425.53;5004917;28;20033;-89
2021/09/28 03:15:05;;;;;;;7.90;1.15;;;;;;;7.85;87.95;91437.72;4982081;28;20026;-90
2021/09/28 03:17:30;;;;;;;4.30;1.23;;;;;;;7.91;87.18;91431.31;4970408;28;20032;-89
2021/09/28 03:19:56;;;;;;;10.05;0.98;;;;;;;8.00;87.69;91432.16;4962708;28;20237;-89
2021/09/28 03:22:21;;;;;;;7.13;1.10;;;;;;;7.97;88.39;91427.53;4962116;28;20140;-89
2021/09/28 03:24:47;;;;;;;5.35;1.00;;;;;;;8.05;86.45;91429.41;4974455;28;20049;-89
2021/09/28 03:27:12;;;;;;;6.03;0.93;;;;;;;8.20;86.22;91437.84;4965754;28;20030;-89
2021/09/28 03:29:38;;;;;;;3.92;0.95;;;;;;;7.99;86.32;91432.47;4962175;28;20026;-89
2021/09/28 03:32:04;;;;;;;5.50;1.00;;;;;;;7.92;87.34;91438.06;4966940;28;20030;-88
2021/09/28 03:34:29;;;;;;;7.70;1.00;;;;;;;7.93;88.36;91428.44;4980912;28;20030;-88
2021/09/28 03:36:54;;;;;;;5.90;1.20;;;;;;;8.16;85.47;91427.31;4993492;28;20037;-88
2021/09/28 03:39:20;;;;;;;16.73;1.75;;;;;;;7.96;86.46;91433.81;4946068;28;20029;-89
2021/09/28 03:41:45;;;;;;;8.23;0.90;;;;;;;7.97;86.38;91437.94;4979388;28;20033;-88
2021/09/28 03:44:11;;;;;;;6.47;0.90;;;;;;;7.87;86.75;91431.16;4980899;28;20037;-88
2021/09/28 03:46:36;;;;;;;7.85;1.05;;;;;;;7.86;87.63;91419.25;4980268;28;20033;-89
2021/09/28 03:49:02;;;;;;;6.25;0.88;;;;;;;7.98;87.39;91429.06;4981022;28;20033;-89
2021/09/28 03:51:27;;;;;;;5.35;1.00;;;;;;;8.06;86.20;91433.56;4977481;28;20037;-88
2021/09/28 03:53:53;;;;;;;2.92;0.60;;;;;;;8.04;87.04;91440.09;4945907;28;20080;-88
2021/09/28 03:56:21;;;;;;;3.85;0.77;;;;;;;8.00;86.66;91445.13;4987258;28;20037;-89
2021/09/28 03:58:47;;;;;;;5.30;0.70;;;;;;;7.84;86.66;91442.16;4981133;28;20395;-89
2021/09/28 04:01:12;;;;;;;10.27;0.90;;;;;;;7.94;86.97;91438.53;4996338;28;20061;-88
2021/09/28 04:03:41;;;;;;;7.30;1.00;;;;;;;7.70;87.70;91441.44;4983536;28;20034;-89
2021/09/28 04:06:09;;;;;;;4.85;0.90;;;;;;;7.77;87.73;91433.25;4980669;28;20109;-91
2021/09/28 04:08:34;;;;;;;8.75;1.45;;;;;;;7.86;87.75;91434.06;4961534;28;20037;-89
2021/09/28 04:11:00;;;;;;;8.32;1.27;;;;;;;7.75;87.75;91427.59;4961462;28;20030;-88
2021/09/28 04:13:25;;;;;;;3.80;0.77;;;;;;;7.81;88.89;91428.97;4945503;28;20033;-89
2021/09/28 04:15:52;;;;;;;5.20;0.73;;;;;;;7.84;88.45;91428.41;4945177;28;20033;-89
2021/09/28 04:18:18;;;;;;;8.52;0.93;;;;;;;7.98;86.59;91426.47;4978288;28;20030;-88
2021/09/28 04:20:43;;;;;;;9.13;1.20;;;;;;;7.82;86.86;91430.53;4963023;28;20036;-90
2021/09/28 04:23:10;;;;;;;4.78;0.70;;;;;;;7.84;86.94;91431.00;4946489;28;20058;-89
2021/09/28 04:25:36;;;;;;;4.80;0.70;;;;;;;7.95;87.35;91442.66;4961902;28;20026;-89
2021/09/28 04:28:01;;;;;;;3.30;0.65;;;;;;;7.83;87.77;91445.03;4945367;28;20646;-88
2021/09/28 04:30:27;;;;;;;5.97;0.60;;;;;;;7.86;86.78;91439.25;4961102;28;20401;-89
2021/09/28 04:32:52;;;;;;;4.72;0.80;;;;;;;7.81;87.76;91441.97;4980340;28;20026;-88
2021/09/28 04:35:18;;;;;;;7.03;1.20;;;;;;;7.86;86.13;91444.44;4979156;28;20052;-88
2021/09/28 04:37:43;;;;;;;2.70;0.60;;;;;;;7.94;86.35;91442.94;4979744;28;20492;-88
2021/09/28 04:40:10;;;;;;;6.93;0.80;;;;;;;7.85;85.91;91446.28;4961455;28;20031;-89
2021/09/28 04:42:35;;;;;;;4.65;0.73;;;;;;;7.84;87.05;91446.56;4945312;28;20027;-89
2021/09/28 04:45:01;;;;;;;3.33;1.10;;;;;;;7.81;87.72;91442.75;4976295;28;20034;-89
2021/09/28 04:47:26;;;;;;;3.75;0.70;;;;;;;7.80;87.19;91435.25;4983909;28;20059;-88
2021/09/28 04:49:51;;;;;;;3.20;0.65;;;;;;;7.74;87.64;91439.81;4980196;28;20025;-89
2021/09/28 04:52:17;;;;;;;4.60;0.75;;;;;;;7.69;87.13;91439.16;4952697;28;20088;-89
2021/09/28 04:54:42;;;;;;;4.55;0.70;;;;;;;7.70;87.20;91441.44;4979573;28;20030;-88
2021/09/28 04:57:08;;;;;;;4.82;0.80;;;;;;;7.59;87.32;91437.56;4979362;28;20487;-87
2021/09/28 04:59:33;;;;;;;5.65;1.13;;;;;;;7.52;88.39;91434.63;4979154;28;20341;-89
2021/09/28 05:01:59;;;;;;;4.60;0.80;;;;;;;7.43;87.97;91440.53;4978877;28;20399;-88
2021/09/28 05:04:24;;;;;;;5.20;0.70;;;;;;;7.31;88.39;91439.53;4963046;28;20030;-88
2021/09/28 05:06:50;;;;;;;4.57;0.85;;;;;;;7.14;88.68;91435.00;4981374;28;20030;-88
2021/09/28 05:09:15;;;;;;;5.10;0.90;;;;;;;7.00;89.35;91432.44;4962270;28;20022;-89
2021/09/28 05:11:40;;;;;;;6.82;1.50;;;;;;;7.11;89.16;91430.41;4979024;28;20462;-89
2021/09/28 05:14:06;;;;;;;4.00;0.77;;;;;;;7.11;88.31;91427.81;4979535;28;20026;-88
2021/09/28 05:16:31;;;;;;;7.00;0.73;;;;;;;7.02;89.44;91432.91;4991803;28;20021;-89
2021/09/28 05:18:57;;;;;;;3.42;0.68;;;;;;;6.97;88.89;91437.47;4962180;28;20030;-89
2021/09/28 05:21:23;;;;;;;3.40;0.70;;;;;;;6.94;88.77;91434.38;4956776;28;20019;-89
2021/09/28 05:23:48;;;;;;;5.18;0.80;;;;;;;6.93;89.13;91426.91;4954990;28;20096;-89
2021/09/28 05:26:14;;;;;;;2.85;1.00;;;;;;;6.95;88.36;91424.78;4963914;28;20472;-89
2021/09/28 05:28:40;;;;;;;5.55;1.25;;;;;;;7.00;87.41;91429.09;4963550;28;20022;-89
2021/09/28 05:31:05;;;;;;;3.10;0.60;;;;;;;6.95;88.01;91432.56;4959727;28;20026;-89
2021/09/28 05:33:30;;;;;;;5.10;0.90;;;;;;;6.83;89.04;91424.53;4943768;28;20018;-89
2021/09/28 05:35:56;;;;;;;2.83;0.90;;;;;;;6.77;89.77;91430.88;4957967;28;20532;-88
2021/09/28 05:38:22;;;;;;;2.00;0.68;;;;;;;6.79;89.55;91434.72;4957639;28;20597;-89
2021/09/28 05:40:47;;;;;;;5.85;1.00;;;;;;;6.86;89.36;91429.91;4959643;28;20019;-89
2021/09/28 05:43:13;;;;;;;3.38;1.05;;;;;;;6.90;89.31;91430.09;4947458;28;20029;-87
2021/09/28 05:45:38;;;;;;;6.53;1.05;;;;;;;6.83;89.46;91430.47;4978509;28;20069;-88
2021/09/28 05:48:04;;;;;;;3.95;1.23;;;;;;;6.76;89.57;91434.53;4966600;28;20065;-88
2021/09/28 05:50:30;;;;;;;5.15;0.80;;;;;;;6.79;89.73;91431.34;4978467;28;20137;-88
2021/09/28 05:52:56;;;;;;;4.40;0.77;;;;;;;6.85;89.37;91435.34;4978784;28;20372;-88
2021/09/28 05:55:22;;;;;;;3.13;0.75;;;;;;;6.87;89.52;91433.25;4959008;28;20096;-88
2021/09/28 05:57:48;;;;;;;5.95;0.88;;;;;;;6.91;88.80;91436.78;4943381;28;20491;-87
2021/09/28 06:00:16;;;;;;;2.95;0.75;;;;;;;6.89;89.77;91428.53;4957411;28;20133;-88
2021/09/28 06:02:42;;;;;;;3.42;1.38;;;;;;;6.98;88.84;91428.63;4973146;28;20044;-88
2021/09/28 06:05:08;;;;;;;6.93;1.77;;;;;;;6.90;88.94;91430.84;4978904;28;20120;-89
2021/09/28 06:07:34;;;;;;;3.22;1.10;;;;;;;6.91;88.89;91426.41;4979689;28;20109;-88
2021/09/28 06:09:59;;;;;;;2.15;0.80;;;;;;;6.98;88.54;91437.16;4943021;28;20096;-89
2021/09/28 06:12:25;;;;;;;3.95;0.90;;;;;;;6.99;88.52;91433.50;4944089;28;20038;-87
2021/09/28 06:14:50;;;;;;;3.30;1.27;;;;;;;6.93;89.04;91429.50;4942855;28;20026;-88
2021/09/28 06:17:16;;;;;;;5.78;1.35;;;;;;;6.81;88.46;91422.22;4978511;28;20029;-87
2021/09/28 06:19:41;;;;;;;4.85;0.90;;;;;;;6.68;89.12;91423.81;4985708;28;20037;-87
2021/09/28 06:22:07;;;;;;;4.75;0.88;;;;;;;6.67;89.31;91426.66;4947369;28;20038;-90
2021/09/28 06:24:32;;;;;;;4.95;0.90;;;;;;;6.69;89.24;91430.50;4960279;28;20007;-90
2021/09/28 06:27:00;;;;;;;5.20;0.93;;;;;;;6.80;89.40;91425.13;4982488;28;20019;-90
2021/09/28 06:29:25;;;;;;;4.18;0.95;;;;;;;6.87;89.39;91425.47;4977834;28;20015;-89
2021/09/28 06:31:51;;;;;;;5.43;1.00;;;;;;;7.00;89.10;91422.09;4959913;28;20498;-88
2021/09/28 06:34:16;;;;;;;4.93;1.10;;;;;;;7.24;88.82;91431.38;4955127;28;20041;-90
2021/09/28 06:36:41;;;;;;;3.30;1.10;;;;;;;7.28;88.31;91421.97;4960474;28;20022;-89
2021/09/28 06:39:07;;;;;;;5.75;0.90;;;;;;;7.36;88.17;91426.47;4961889;28;20027;-89
2021/09/28 06:41:33;;;;;;;3.50;0.80;;;;;;;7.37;88.19;91425.38;4960003;28;20041;-90
2021/09/28 06:43:59;;;;;;;6.10;0.95;;;;;;;7.42;88.88;91431.22;4959530;28;20057;-88
2021/09/28 06:46:25;;;;;;;4.25;0.90;;;;;;;7.52;88.92;91430.19;4959082;28;20551;-89
2021/09/28 06:48:50;;;;;;;5.22;1.00;;;;;;;7.77;87.87;91423.63;4960845;28;20054;-91
2021/09/28 06:51:16;;;;;;;2.90;0.70;;;;;;;7.76;88.24;91427.28;4959814;28;20026;-91
2021/09/28 06:53:41;;;;;;;3.45;0.88;;;;;;;7.90;86.68;91427.22;4942881;28;20022;-90
2021/09/28 06:56:07;;;;;;;5.07;1.33;;;;;;;7.96;85.47;91426.03;4948551;28;20480;-89
2021/09/28 06:58:33;;;;;;;3.80;0.80;;;;;;;8.03;85.86;91423.75;4941917;28;20027;-89
2021/09/28 07:00:58;;;;;;;7.03;0.85;;;;;;;8.04;84.22;91422.69;4958974;28;20037;-87
2021/09/28 07:03:24;;;;;;;4.32;0.93;;;;;;;7.97;85.41;91424.19;4968480;28;20093;-89
2021/09/28 07:05:49;;;;;;;6.05;0.93;;;;;;;8.13;86.43;91423.50;4977862;28;20030;-89
2021/09/28 07:08:15;;;;;;;4.40;1.08;;;;;;;8.17;85.35;91418.47;4965637;28;20395;-89
2021/09/28 07:10:41;;;;;;;4.22;1.05;;;;;;;8.30;85.59;91417.59;4942966;28;20022;-89
2021/09/28 07:13:07;;;;;;;7.50;1.17;;;;;;;8.48;83.87;91413.25;4961801;28;20045;-88
2021/09/28 07:15:32;;;;;;;4.32;1.23;;;;;;;8.64;83.26;91418.78;4923612;28;20030;-88
2021/09/28 07:17:58;;;;;;;8.00;1.67;;;;;;;8.65;82.19;91416.94;4946809;28;20116;-88
2021/09/28 07:20:23;;;;;;;6.03;1.13;;;;;;;8.65;81.06;91409.91;4962846;28;20045;-89
2021/09/28 07:22:49;;;;;;;4.97;0.90;;;;;;;8.65;80.96;91422.13;4961128;28;20061;-89
2021/09/28 07:25:14;;;;;;;5.57;1.05;;;;;;;8.84;79.92;91415.59;4979423;28;20026;-88
2021/09/28 07:27:40;;;;;;;5.55;0.93;;;;;;;8.72;80.61;91422.44;4954172;28;20018;-88
2021/09/28 07:30:06;;;;;;;3.65;0.95;;;;;;;8.74;81.00;91415.88;4985128;28;20030;-88
2021/09/28 07:32:32;;;;;;;5.22;1.08;;;;;;;8.59;81.23;91419.69;4965573;28;20022;-88
2021/09/28 07:35:01;;;;;;;3.42;0.88;;;;;;;8.76;81.55;91423.38;4946198;28;20113;-90
2021/09/28 07:37:28;;;;;;;7.22;1.02;;;;;;;8.84;81.79;91420.03;4976421;28;20507;-89
2021/09/28 07:39:54;;;;;;;5.07;0.90;;;;;;;8.93;80.32;91412.22;4981237;28;20112;-89
2021/09/28 07:42:19;;;;;;;4.10;0.82;;;;;;;8.92;78.89;91415.91;4968923;28;20093;-90
2021/09/28 07:44:46;;;;;;;3.78;0.70;;;;;;;8.76;79.02;91412.97;4961567;28;20040;-90
2021/09/28 07:47:12;;;;;;;5.40;1.00;;;;;;;8.95;83.82;91418.66;4945676;28;20022;-89
2021/09/28 07:49:37;;;;;;;2.55;0.57;;;;;;;9.16;82.43;91420.66;4978459;28;20041;-90
2021/09/28 07:52:03;;;;;;;2.70;0.80;;;;;;;9.08;81.22;91415.16;4961903;28;20018;-89
2021/09/28 07:54:28;;;;;;;7.15;0.90;;;;;;;9.28;79.15;91413.00;4945712;28;20026;-90
2021/09/28 07:56:54;;;;;;;5.32;0.93;;;;;;;9.59;77.64;91407.59;4947475;28;20049;-89
2021/09/28 07:59:19;;;;;;;5.00;1.17;;;;;;;9.30;76.52;91410.88;4982315;28;20028;-90
2021/09/28 08:01:45;;;;;;;8.85;0.77;;;;;;;9.39;77.68;91414.22;4966442;28;20405;-89
2021/09/28 08:04:10;;;;;;;8.55;1.00;;;;;;;9.25;77.14;91413.59;4949596;28;20026;-89
2021/09/28 08:06:36;;;;;;;5.30;1.00;;;;;;;9.26;80.43;91404.75;4945717;28;20034;-88
2021/09/28 08:09:01;;;;;;;3.83;0.90;;;;;;;9.49;79.34;91394.91;4961585;28;20029;-89
2021/09/28 08:11:27;;;;;;;7.80;0.85;;;;;;;9.58;77.18;91396.44;4964148;28;20474;-89
2021/09/28 08:13:53;;;;;;;2.70;0.80;;;;;;;9.67;75.48;91399.00;4973728;28;20496;-86
2021/09/28 08:16:19;;;;;;;3.45;0.70;;;;;;;9.62;75.53;91401.03;4978545;28;20030;-90
2021/09/28 08:18:45;;;;;;;2.67;0.70;;;;;;;9.58;77.83;91391.22;4961373;28;20026;-89
2021/09/28 08:21:10;;;;;;;4.35;0.90;;;;;;;9.68;78.45;91405.75;4976364;28;20395;-89
2021/09/28 08:23:36;;;;;;;3.83;1.00;;;;;;;9.78;76.62;91400.19;4960798;28;20049;-89
2021/09/28 08:29:09;;;;;;;3.90;1.20;;;;;;;9.73;77.41;91405.59;4962256;28;20029;-89
2021/09/28 08:31:31;;;;;;;2.97;0.80;;;;;;;9.93;78.11;91401.56;4982940;28;20033;-89
2021/09/28 08:33:56;;;;;;;6.93;1.48;;;;;;;10.07;79.13;91403.97;4980881;28;20030;-89
2021/09/28 08:36:22;;;;;;;5.97;0.90;;;;;;;10.07;74.75;91398.75;4963806;28;20084;-89
2021/09/28 08:38:47;;;;;;;3.28;0.90;;;;;;;10.13;74.34;91394.88;4957420;28;20455;-89
2021/09/28 08:41:15;;;;;;;3.00;1.15;;;;;;;10.16;75.19;91393.50;4960921;28;20038;-90
2021/09/28 08:43:40;;;;;;;4.07;0.90;;;;;;;10.19;75.99;91392.88;4944799;28;20022;-89
2021/09/28 08:46:06;;;;;;;5.60;0.98;;;;;;;10.49;78.24;91394.47;4962340;28;20391;-89
2021/09/28 08:48:31;;;;;;;3.80;1.17;;;;;;;10.44;73.77;91394.63;4979786;28;20029;-89
2021/09/28 08:50:56;;;;;;;5.13;1.20;;;;;;;10.59;76.71;91395.91;4948933;28;20531;-90
2021/09/28 08:53:22;;;;;;;9.43;2.15;;;;;;;10.74;77.63;91395.38;4960499;28;20069;-90
2021/09/28 08:55:47;;;;;;;4.82;0.90;;;;;;;10.68;76.83;91390.66;4957059;28;20031;-90
2021/09/28 08:58:18;;;;;;;4.13;0.90;;;;;;;10.75;77.22;91393.53;4956706;28;20023;-89
2021/09/28 09:00:44;;;;;;;3.78;0.77;;;;;;;10.81;73.01;91381.81;4973471;28;20579;-90
2021/09/28 09:03:26;;;;;;;5.00;1.50;;;;;;;10.76;73.83;91382.03;4973174;28;20033;-90
2021/09/28 09:05:56;;;;;;;3.72;0.60;;;;;;;10.92;76.13;91392.66;4955498;28;20104;-90
2021/09/28 09:08:27;;;;;;;3.90;1.00;;;;;;;10.96;72.98;91378.66;5027118;22;20077;-85
2021/09/28 09:11:09;;;;;;;3.65;0.80;;;;;;;11.14;74.21;91368.84;5055702;28;20037;-85
2021/09/28 09:13:36;;;;;;;4.00;0.88;;;;;;;11.22;72.48;91351.59;5022362;28;20039;-86
2021/09/28 09:16:02;;;;;;;3.58;0.60;;;;;;;11.20;69.38;91359.75;5039109;28;20033;-86
2021/09/28 09:18:28;;;;;;;1.73;0.52;;;;;;;11.26;69.78;91362.91;5022483;28;20394;-88
2021/09/28 09:20:53;;;;;;;4.78;0.75;;;;;;;11.26;69.51;91360.31;5035057;28;20025;-86
2021/09/28 09:23:22;;;;;;;3.55;0.70;;;;;;;11.51;70.59;91349.94;5053493;28;20503;-86
2021/09/28 09:25:55;;;;;;;3.60;0.70;;;;;;;11.70;72.15;91358.06;5055057;28;20024;-87
2021/09/28 09:28:31;;;;;;;4.93;0.70;;;;;;;11.91;67.63;91363.25;5055257;28;20107;-86
2021/09/28 09:31:12;;;;;;;5.28;0.70;;;;;;;12.10;69.55;91360.09;5043739;28;20130;-87
2021/09/28 09:33:39;;;;;;;3.70;1.10;;;;;;;12.17;68.14;91355.09;5037889;28;20024;-86
2021/09/28 09:36:23;;;;;;;3.67;0.75;;;;;;;12.29;64.12;91351.72;5038421;28;20029;-88
2021/09/28 09:38:57;;;;;;;3.85;0.40;;;;;;;12.20;62.75;91349.22;5038216;28;20486;-88
2021/09/28 09:41:30;;;;;;;3.45;0.40;;;;;;;12.20;63.57;91346.59;5014393;28;20040;-88
2021/09/28 09:44:13;;;;;;;2.15;0.43;;;;;;;12.04;61.53;91345.72;5035520;28;20106;-87
2021/09/28 09:46:48;;;;;;;2.10;0.30;;;;;;;12.27;63.11;91338.97;5070439;28;20052;-87
2021/09/28 09:49:24;;;;;;;2.10;0.50;;;;;;;12.21;61.21;91345.50;5037874;28;20021;-87
2021/09/28 09:51:54;;;;;;;2.17;0.45;;;;;;;12.48;65.52;91332.88;5037987;28;20082;-87
2021/09/28 09:54:33;;;;;;;3.17;0.47;;;;;;;12.57;61.78;91330.88;5034746;28;20071;-88
2021/09/28 09:57:01;;;;;;;3.17;0.50;;;;;;;12.28;60.16;91342.34;5034997;28;20028;-88
2021/09/28 09:59:51;;;;;;;1.17;0.30;;;;;;;12.34;63.94;91339.19;5050637;28;20033;-87
2021/09/28 10:02:16;;;;;;;4.30;0.40;;;;;;;12.40;64.51;91326.66;5052547;28;20040;-87
2021/09/28 10:04:41;;;;;;;2.50;0.55;;;;;;;12.22;60.63;91327.97;5036985;28;20494;-88
2021/09/28 10:07:07;;;;;;;2.00;0.88;;;;;;;12.15;61.06;91321.44;5021754;28;20020;-87
2021/09/28 10:09:38;;;;;;;2.45;0.70;;;;;;;12.45;63.67;91323.84;5012908;28;20398;-87
2021/09/28 10:12:08;;;;;;;2.72;0.50;;;;;;;12.59;62.19;91320.88;5019074;28;20112;-87
2021/09/28 10:14:39;;;;;;;2.08;0.50;;;;;;;12.64;62.05;91320.63;5034468;28;20024;-87
2021/09/28 10:17:20;;;;;;;1.58;0.40;;;;;;;12.88;64.06;91325.81;5020359;28;20024;-87
2021/09/28 10:19:53;;;;;;;4.53;0.52;;;;;;;12.98;60.31;91315.97;5048451;28;20036;-87
2021/09/28 10:22:33;;;;;;;2.55;0.50;;;;;;;12.99;60.06;91317.50;5054762;28;20107;-87
2021/09/28 10:27:50;;;;;;;2.70;0.47;;;;;;;12.89;61.88;91318.72;5052432;28;20037;-88
2021/09/28 10:30:38;;;;;;;2.03;0.47;;;;;;;12.88;56.94;91317.97;5019498;28;20146;-87
2021/09/28 10:33:22;;;;;;;1.10;0.40;;;;;;;12.77;56.42;91311.69;5054477;28;20493;-88
2021/09/28 10:36:07;;;;;;;3.78;0.60;;;;;;;12.81;61.09;91314.38;5034586;28;20021;-87
2021/09/28 10:38:53;;;;;;;1.90;0.50;;;;;;;12.94;60.04;91309.91;5049774;28;20028;-88
2021/09/28 10:41:31;;;;;;;2.13;0.55;;;;;;;13.21;58.89;91300.50;5054691;28;20029;-87
2021/09/28 10:44:26;;;;;;;1.55;0.60;;;;;;;13.49;60.00;91287.41;5053839;28;20029;-87
2021/09/28 10:46:56;;;;;;;3.72;0.63;;;;;;;13.64;60.87;91297.16;5050912;28;20035;-87
2021/09/28 10:49:26;;;;;;;1.90;0.40;;;;;;;13.86;60.57;91288.72;5034249;28;20487;-88
2021/09/28 10:51:51;;;;;;;3.40;0.60;;;;;;;14.11;59.56;91283.31;5051858;28;20025;-88
2021/09/28 10:54:16;;;;;;;3.70;0.55;;;;;;;14.31;59.99;91287.50;5021400;28;20016;-88
2021/09/28 10:56:51;;;;;;;1.55;0.50;;;;;;;14.39;57.55;91282.41;5056941;28;20028;-90
2021/09/28 10:59:17;;;;;;;2.33;0.45;;;;;;;14.47;56.47;91276.22;5053131;28;20497;-88
2021/09/28 11:01:43;;;;;;;2.60;0.50;;;;;;;14.50;56.12;91273.69;5057815;28;20055;-87
2021/09/28 11:04:15;;;;;;;2.60;0.57;;;;;;;14.53;56.62;91277.50;5026213;28;20021;-86
2021/09/28 11:06:41;;;;;;;2.72;0.50;;;;;;;14.44;55.67;91263.78;5012071;28;20029;-88
2021/09/28 11:09:07;;;;;;;3.67;0.50;;;;;;;14.41;53.61;91267.09;5037946;28;20079;-87
2021/09/28 11:11:32;;;;;;;2.55;0.55;;;;;;;14.20;55.48;91270.00;5021687;28;20025;-87
2021/09/28 11:14:02;;;;;;;1.60;0.40;;;;;;;14.14;57.18;91263.53;5062154;28;20024;-88
2021/09/28 11:16:27;;;;;;;2.10;0.63;;;;;;;14.41;58.05;91264.47;5041467;28;20098;-88
2021/09/28 11:18:55;;;;;;;1.27;0.68;;;;;;;14.40;55.83;91270.81;5024451;28;20505;-89
2021/09/28 11:21:21;;;;;;;3.58;0.80;;;;;;;14.11;55.48;91263.09;5041429;28;20036;-88
2021/09/28 11:23:49;;;;;;;2.72;0.70;;;;;;;14.30;57.48;91264.25;5040175;28;20020;-88
2021/09/28 11:26:15;;;;;;;2.25;0.68;;;;;;;14.19;57.83;91255.38;5040766;28;20540;-87
2021/09/28 11:28:49;;;;;;;2.83;0.60;;;;;;;14.34;53.83;91259.81;5040583;28;20020;-87
2021/09/28 11:31:14;;;;;;;3.13;0.73;;;;;;;14.51;57.63;91263.97;5037177;28;20024;-87
2021/09/28 11:33:44;;;;;;;1.70;0.50;;;;;;;14.37;55.93;91259.16;5031474;28;20035;-88
2021/09/28 11:36:10;;;;;;;3.55;0.90;;;;;;;14.45;57.57;91254.81;5053702;28;20103;-89
2021/09/28 11:38:39;;;;;;;4.07;0.80;;;;;;;14.62;59.86;91251.81;5053555;28;20035;-88
2021/09/28 11:41:08;;;;;;;2.05;0.68;;;;;;;14.91;57.84;91249.75;5070981;28;20097;-88
2021/09/28 11:43:35;;;;;;;3.53;0.60;;;;;;;15.02;57.57;91245.50;5040201;28;20032;-88